Time;durP1;ratioP1;P1;durP2;ratioP2;P2;SDS_P1;SDS_P2;PMS_P1;PMS_P2;Temp;Humidity;BMP_temperature;BMP_pressure;BME280_temperature;BME280_humidity;BME280_pressure;Samples;Min_cycle;Max_cycle;Signal;HPM_P1;HPM_P2
2020/12/19 00:02:15;;;;;;;1.88;1.27;;;;;;;23.98;34.11;101483.13;4955026;28;96785;-94
2020/12/19 00:04:41;;;;;;;1.42;1.13;;;;;;;23.97;33.70;101482.25;4961535;28;125530;-91
2020/12/19 00:07:07;;;;;;;2.78;1.50;;;;;;;23.98;33.92;101481.34;4984296;28;105604;-93
2020/12/19 00:09:32;;;;;;;3.13;1.50;;;;;;;23.99;33.97;101480.41;4956262;28;103168;-92
2020/12/19 00:11:57;;;;;;;1.80;1.35;;;;;;;24.00;34.00;101475.97;4956969;28;112287;-91
2020/12/19 00:14:23;;;;;;;1.88;1.20;;;;;;;24.00;33.75;101481.28;4957855;28;117023;-91
2020/12/19 00:16:49;;;;;;;1.75;1.27;;;;;;;24.01;33.84;101467.03;4972093;28;99000;-93
2020/12/19 00:19:14;;;;;;;1.88;1.30;;;;;;;24.01;34.02;101459.03;4970401;28;96652;-92
2020/12/19 00:21:40;;;;;;;2.03;1.02;;;;;;;24.02;33.84;101461.66;4971454;28;100784;-92
2020/12/19 00:24:06;;;;;;;1.73;1.40;;;;;;;24.03;33.77;101451.84;4956959;28;111234;-92
2020/12/19 00:26:38;;;;;;;1.45;1.05;;;;;;;24.03;33.72;101462.50;4956338;28;99279;-92
2020/12/19 00:29:25;;;;;;;1.88;1.15;;;;;;;24.04;33.71;101454.47;4986692;28;96679;-92
2020/12/19 00:32:12;;;;;;;1.92;1.38;;;;;;;24.04;33.80;101457.13;4975923;28;96521;-92
2020/12/19 00:35:00;;;;;;;2.10;1.30;;;;;;;24.04;33.89;101457.13;4965656;28;96941;-91
2020/12/19 00:37:47;;;;;;;1.95;1.10;;;;;;;24.02;33.88;101453.66;4960539;28;96575;-92
2020/12/19 00:40:13;;;;;;;1.50;1.23;;;;;;;24.04;33.63;101445.59;4939200;28;96017;-92
2020/12/19 00:42:38;;;;;;;1.85;1.30;;;;;;;24.04;33.93;101451.81;4970163;28;96528;-92
2020/12/19 00:45:05;;;;;;;2.00;1.40;;;;;;;24.04;33.87;101441.13;4966524;28;103755;-92
2020/12/19 00:47:33;;;;;;;1.73;1.40;;;;;;;24.06;33.63;101443.75;4987664;28;99035;-91
2020/12/19 00:49:59;;;;;;;1.35;1.10;;;;;;;24.05;33.68;101437.56;4950046;28;96738;-91
2020/12/19 00:52:24;;;;;;;1.30;1.00;;;;;;;24.06;33.77;101438.44;4969036;28;112357;-91
2020/12/19 00:54:50;;;;;;;1.48;1.20;;;;;;;24.07;33.61;101430.38;4953726;28;126178;-91
2020/12/19 00:57:15;;;;;;;1.77;1.30;;;;;;;24.08;33.80;101425.91;4973981;28;100020;-91
2020/12/19 00:59:41;;;;;;;1.10;0.98;;;;;;;24.07;33.63;101424.19;4954219;28;96792;-92
2020/12/19 01:02:06;;;;;;;2.63;1.20;;;;;;;24.08;33.56;101424.16;4970282;28;108687;-92
2020/12/19 01:04:32;;;;;;;1.63;1.38;;;;;;;24.08;33.50;101424.16;4954565;28;115912;-91
2020/12/19 01:06:57;;;;;;;2.22;1.38;;;;;;;24.09;33.55;101417.88;4952481;28;121662;-91
2020/12/19 01:09:23;;;;;;;1.67;1.30;;;;;;;24.09;33.48;101412.53;4955820;28;96548;-92
2020/12/19 01:11:48;;;;;;;1.83;1.20;;;;;;;24.10;33.49;101408.06;4939633;28;96753;-91
2020/12/19 01:14:13;;;;;;;1.40;1.10;;;;;;;24.10;33.80;101411.63;4952637;28;126278;-92
2020/12/19 01:16:39;;;;;;;1.73;1.20;;;;;;;24.11;33.50;101415.16;4977109;28;100182;-91
2020/12/19 01:19:04;;;;;;;1.60;1.15;;;;;;;24.12;33.67;101415.09;4954380;28;112695;-91
2020/12/19 01:21:30;;;;;;;1.60;1.30;;;;;;;24.12;33.80;101414.25;4954835;28;96700;-91
2020/12/19 01:23:55;;;;;;;1.63;1.17;;;;;;;24.11;33.32;101408.03;4952330;28;126924;-92
2020/12/19 01:26:21;;;;;;;2.08;1.02;;;;;;;24.12;33.49;101415.09;4954444;28;99070;-91
2020/12/19 01:28:46;;;;;;;1.27;1.10;;;;;;;24.12;33.78;101403.59;4956950;28;96788;-92
2020/12/19 01:31:14;;;;;;;1.55;1.13;;;;;;;24.12;33.39;101407.13;4938459;28;96625;-92
2020/12/19 01:33:39;;;;;;;1.17;1.08;;;;;;;24.12;33.59;101401.78;4970459;28;102551;-92
2020/12/19 01:36:12;;;;;;;1.50;1.05;;;;;;;24.11;33.52;101405.34;4970147;28;99075;-92
2020/12/19 01:38:37;;;;;;;1.60;1.45;;;;;;;24.12;33.36;101403.59;4986284;28;97880;-92
2020/12/19 01:41:03;;;;;;;1.00;0.90;;;;;;;24.13;33.57;101411.53;4951156;28;111083;-92
2020/12/19 01:43:41;;;;;;;1.30;1.00;;;;;;;24.11;33.52;101394.69;4969697;28;99247;-91
2020/12/19 01:46:07;;;;;;;2.30;1.15;;;;;;;24.13;33.38;101399.97;4970311;28;99112;-92
2020/12/19 01:48:32;;;;;;;2.03;1.27;;;;;;;24.14;33.38;101393.75;4950337;28;111219;-91
2020/12/19 01:50:58;;;;;;;1.42;1.30;;;;;;;24.14;33.34;101399.06;4939013;28;113284;-92
2020/12/19 01:53:23;;;;;;;1.42;1.00;;;;;;;24.14;33.38;101402.59;4954163;28;99189;-91
2020/12/19 01:55:52;;;;;;;1.50;1.40;;;;;;;24.14;33.40;101397.25;4953504;28;128498;-92
2020/12/19 01:58:17;;;;;;;1.70;1.30;;;;;;;24.14;33.33;101396.41;4971678;28;96614;-91
2020/12/19 02:00:43;;;;;;;1.65;1.30;;;;;;;24.13;33.44;101395.53;4969700;28;112121;-92
2020/12/19 02:03:08;;;;;;;1.85;1.20;;;;;;;24.13;33.65;101395.53;4987351;28;99180;-91
2020/12/19 02:05:35;;;;;;;1.77;1.30;;;;;;;24.14;33.54;101404.41;4972605;28;100998;-92
2020/12/19 02:08:01;;;;;;;1.55;1.33;;;;;;;24.13;33.53;101400.88;4974958;28;96742;-91
2020/12/19 02:10:33;;;;;;;1.30;1.00;;;;;;;24.12;33.21;101400.94;4992726;28;96823;-91
2020/12/19 02:13:04;;;;;;;1.83;1.30;;;;;;;24.12;33.48;101392.94;4971153;28;99350;-92
2020/12/19 02:15:43;;;;;;;1.20;1.00;;;;;;;24.10;33.54;101387.66;4969648;28;99021;-92
2020/12/19 02:18:08;;;;;;;1.40;1.30;;;;;;;24.12;33.66;101388.47;4936385;28;96523;-92
2020/12/19 02:20:34;;;;;;;1.40;1.20;;;;;;;24.12;33.45;101384.94;4957077;28;96412;-92
2020/12/19 02:23:00;;;;;;;1.20;1.10;;;;;;;24.12;33.40;101379.59;4973141;28;108206;-91
2020/12/19 02:25:30;;;;;;;1.42;1.05;;;;;;;24.12;33.32;101380.47;4957288;28;98975;-91
2020/12/19 02:27:55;;;;;;;1.30;1.10;;;;;;;24.13;33.47;101378.66;4954718;28;96606;-92
2020/12/19 02:30:21;;;;;;;1.65;1.10;;;;;;;24.12;33.46;101379.59;4971901;28;110967;-91
2020/12/19 02:32:46;;;;;;;1.40;1.30;;;;;;;24.13;33.41;101379.56;4972046;28;100204;-92
2020/12/19 02:35:12;;;;;;;1.50;1.23;;;;;;;24.14;33.46;101370.63;4970247;28;122853;-92
2020/12/19 02:37:37;;;;;;;1.40;1.23;;;;;;;24.14;33.52;101362.63;4953780;28;96341;-91
2020/12/19 02:40:03;;;;;;;1.73;1.20;;;;;;;24.16;33.47;101372.38;4953412;28;100867;-91
2020/12/19 02:42:28;;;;;;;1.63;1.27;;;;;;;24.15;33.48;101368.81;4952352;28;119168;-92
2020/12/19 02:44:53;;;;;;;1.17;1.00;;;;;;;24.16;33.59;101365.22;4960810;28;124241;-92
2020/12/19 02:47:19;;;;;;;1.48;1.23;;;;;;;24.16;33.08;101365.22;4953251;28;97001;-92
2020/12/19 02:49:44;;;;;;;1.27;1.08;;;;;;;24.15;33.32;101360.81;4971862;28;111142;-91
2020/12/19 02:52:10;;;;;;;1.55;1.45;;;;;;;24.15;33.28;101352.81;4937169;28;118254;-92
2020/12/19 02:54:35;;;;;;;1.40;1.30;;;;;;;24.17;33.47;101358.09;4937432;28;119195;-92
2020/12/19 02:57:01;;;;;;;1.77;1.38;;;;;;;24.17;33.28;101358.09;4970824;28;96660;-92
2020/12/19 02:59:27;;;;;;;1.20;1.00;;;;;;;24.16;33.27;101356.38;4953735;28;96828;-92
2020/12/19 03:01:52;;;;;;;1.42;1.10;;;;;;;24.17;33.39;101353.66;4968325;28;128703;-91
2020/12/19 03:04:17;;;;;;;1.30;1.00;;;;;;;24.18;33.02;101351.84;4951676;28;99054;-92
2020/12/19 03:06:43;;;;;;;1.48;1.20;;;;;;;24.17;33.22;101348.34;4968279;28;96830;-92
2020/12/19 03:09:08;;;;;;;1.52;1.38;;;;;;;24.17;33.22;101347.44;4952808;28;100205;-92
2020/12/19 03:11:34;;;;;;;1.40;1.10;;;;;;;24.17;33.22;101345.66;4952480;28;113907;-92
2020/12/19 03:13:59;;;;;;;1.67;1.08;;;;;;;24.17;33.26;101353.66;4952078;28;127579;-92
2020/12/19 03:16:25;;;;;;;1.60;1.30;;;;;;;24.16;33.10;101351.91;4953037;28;96779;-91
2020/12/19 03:18:50;;;;;;;1.25;1.00;;;;;;;24.16;33.31;101346.56;4971290;28;102190;-92
2020/12/19 03:21:15;;;;;;;1.30;1.00;;;;;;;24.15;33.13;101350.16;4935946;28;99962;-92
2020/12/19 03:23:41;;;;;;;1.65;1.30;;;;;;;24.14;33.02;101343.97;4950981;28;126060;-92
2020/12/19 03:26:07;;;;;;;1.55;1.20;;;;;;;24.16;33.29;101343.06;4962951;28;96628;-92
2020/12/19 03:28:32;;;;;;;1.77;1.50;;;;;;;24.16;33.06;101337.72;4954291;28;100762;-91
2020/12/19 03:30:57;;;;;;;1.40;1.30;;;;;;;24.15;33.19;101339.50;4952376;28;98658;-91
2020/12/19 03:33:23;;;;;;;1.30;1.20;;;;;;;24.14;33.35;101322.66;4950732;28;126597;-91
2020/12/19 03:35:50;;;;;;;1.88;1.73;;;;;;;24.15;33.27;101323.50;4969135;28;98059;-92
2020/12/19 03:38:16;;;;;;;1.77;1.20;;;;;;;24.13;33.29;101326.25;4953113;28;96867;-91
2020/12/19 03:40:41;;;;;;;1.40;1.30;;;;;;;24.14;33.16;101327.13;4950996;28;126394;-91
2020/12/19 03:43:06;;;;;;;1.40;1.17;;;;;;;24.15;33.26;101323.50;4936134;28;127353;-91
2020/12/19 03:45:32;;;;;;;1.83;1.20;;;;;;;24.15;32.91;101312.84;4956206;28;96621;-91
2020/12/19 03:47:57;;;;;;;1.20;0.98;;;;;;;24.15;33.02;101318.16;4956226;28;96342;-91
2020/12/19 03:50:23;;;;;;;1.30;1.10;;;;;;;24.14;33.26;101311.13;4937361;28;112286;-91
2020/12/19 03:52:48;;;;;;;1.33;1.23;;;;;;;24.16;33.24;101311.06;4971638;28;98924;-92
2020/12/19 03:55:14;;;;;;;1.35;1.15;;;;;;;24.15;33.07;101304.84;4955569;28;96669;-91
2020/12/19 03:57:39;;;;;;;1.45;1.10;;;;;;;24.16;32.96;101300.41;4939080;28;108152;-92
2020/12/19 04:00:05;;;;;;;1.40;1.10;;;;;;;24.16;33.09;101287.94;4954206;28;114334;-92
2020/12/19 04:02:37;;;;;;;1.10;1.00;;;;;;;24.16;33.34;101285.28;4955941;28;96908;-91
2020/12/19 04:05:04;;;;;;;1.30;1.20;;;;;;;24.17;33.09;101284.38;4955320;28;96538;-91
2020/12/19 04:07:29;;;;;;;1.50;1.40;;;;;;;24.17;33.13;101281.69;4956019;28;100676;-92
2020/12/19 04:09:54;;;;;;;1.50;1.20;;;;;;;24.18;33.30;101274.56;4976204;28;127470;-91
2020/12/19 04:12:20;;;;;;;1.30;1.20;;;;;;;24.18;33.36;101279.91;4971823;28;96723;-92
2020/12/19 04:14:45;;;;;;;1.20;0.95;;;;;;;24.18;33.00;101278.09;4954978;28;96760;-91
2020/12/19 04:17:11;;;;;;;1.23;1.13;;;;;;;24.18;33.20;101274.56;4971333;28;96809;-91
2020/12/19 04:19:37;;;;;;;0.98;0.80;;;;;;;24.17;32.84;101260.38;4939022;28;99564;-92
2020/12/19 04:22:03;;;;;;;1.55;1.20;;;;;;;24.17;33.21;101262.16;4970316;28;100164;-92
2020/12/19 04:24:29;;;;;;;1.65;1.20;;;;;;;24.17;33.25;101264.81;4955408;28;96846;-93
2020/12/19 04:26:54;;;;;;;1.42;1.33;;;;;;;24.16;32.81;101255.97;4939244;28;96722;-91
2020/12/19 04:29:20;;;;;;;1.30;1.13;;;;;;;24.16;32.83;101258.63;4954108;28;107014;-92
2020/12/19 04:31:45;;;;;;;2.15;1.20;;;;;;;24.16;32.61;101255.09;4952666;28;98800;-91
2020/12/19 04:34:11;;;;;;;1.42;1.30;;;;;;;24.15;32.90;101264.88;4987407;28;98231;-93
2020/12/19 04:36:36;;;;;;;1.40;1.23;;;;;;;24.17;32.92;101259.50;4939037;28;96788;-93
2020/12/19 04:39:02;;;;;;;1.40;1.30;;;;;;;24.16;33.01;101257.78;4952900;28;127542;-92
2020/12/19 04:41:28;;;;;;;1.17;1.02;;;;;;;24.16;33.00;101252.44;4950636;28;110219;-91
2020/12/19 04:43:53;;;;;;;1.40;1.05;;;;;;;24.16;32.90;101249.78;4955901;28;96349;-93
2020/12/19 04:46:18;;;;;;;1.50;1.20;;;;;;;24.16;33.12;101257.78;4970961;28;109443;-91
2020/12/19 04:48:44;;;;;;;1.10;0.90;;;;;;;24.17;32.90;101246.16;4952567;28;126981;-91
2020/12/19 04:51:09;;;;;;;1.35;1.00;;;;;;;24.16;32.76;101245.31;4971762;28;98952;-93
2020/12/19 04:53:35;;;;;;;1.00;0.90;;;;;;;24.16;33.09;101231.13;4937447;28;112630;-91
2020/12/19 04:56:00;;;;;;;1.77;1.23;;;;;;;24.16;32.99;101244.44;4954994;28;96563;-92
2020/12/19 04:58:25;;;;;;;1.25;1.15;;;;;;;24.17;32.84;101231.06;4937635;28;98863;-92
2020/12/19 05:00:51;;;;;;;1.60;1.50;;;;;;;24.18;32.92;101234.59;4954580;28;127247;-91
2020/12/19 05:03:16;;;;;;;1.35;1.00;;;;;;;24.17;33.05;101222.19;4937887;28;113586;-91
2020/12/19 05:05:43;;;;;;;1.38;1.20;;;;;;;24.17;32.80;101223.06;4954579;28;108893;-92
2020/12/19 05:08:09;;;;;;;1.33;1.10;;;;;;;24.18;32.99;101218.59;4953195;28;99184;-92
2020/12/19 05:10:34;;;;;;;1.23;1.10;;;;;;;24.18;33.01;101219.47;4952504;28;99357;-93
2020/12/19 05:13:00;;;;;;;1.20;1.10;;;;;;;24.17;33.09;101208.84;4956172;28;96638;-92
2020/12/19 05:15:25;;;;;;;1.50;1.08;;;;;;;24.18;32.92;101215.94;4954784;28;108332;-91
2020/12/19 05:17:57;;;;;;;1.65;1.10;;;;;;;24.18;32.77;101214.13;4954487;28;98832;-92
2020/12/19 05:20:28;;;;;;;2.22;1.10;;;;;;;24.18;32.86;101216.78;4973145;28;98906;-92
2020/12/19 05:22:54;;;;;;;1.90;1.20;;;;;;;24.18;32.81;101215.94;4952365;28;96948;-91
2020/12/19 05:25:21;;;;;;;1.13;0.90;;;;;;;24.18;32.75;101219.47;4969901;28;97873;-92
2020/12/19 05:27:47;;;;;;;1.23;0.93;;;;;;;24.19;33.06;101215.00;4953698;28;117866;-92
2020/12/19 05:30:17;;;;;;;1.08;0.98;;;;;;;24.17;33.08;101211.50;4953445;28;99136;-92
2020/12/19 05:32:46;;;;;;;1.48;1.10;;;;;;;24.17;32.77;101212.41;4954730;28;96623;-91
2020/12/19 05:35:13;;;;;;;1.20;1.05;;;;;;;24.18;32.56;101215.94;4984003;28;96795;-92
2020/12/19 05:37:38;;;;;;;1.33;1.10;;;;;;;24.18;32.71;101210.59;4970135;28;104128;-91
2020/12/19 05:40:08;;;;;;;1.42;1.27;;;;;;;24.17;32.84;101208.84;4953360;28;122583;-92
2020/12/19 05:42:33;;;;;;;2.08;1.20;;;;;;;24.17;32.75;101204.41;4935361;28;96887;-92
2020/12/19 05:44:59;;;;;;;1.38;1.08;;;;;;;24.16;33.07;101202.66;4979258;28;96525;-92
2020/12/19 05:47:24;;;;;;;1.20;0.98;;;;;;;24.17;33.06;101198.19;4970122;28;98939;-92
2020/12/19 05:49:50;;;;;;;1.55;1.00;;;;;;;24.18;32.93;101205.28;4953713;28;125530;-92
2020/12/19 05:52:16;;;;;;;1.38;1.27;;;;;;;24.18;32.83;101202.59;4952018;28;111936;-91
2020/12/19 05:54:42;;;;;;;1.40;1.10;;;;;;;24.17;32.89;101208.84;4971299;28;103397;-91
2020/12/19 05:57:08;;;;;;;1.35;1.20;;;;;;;24.18;32.95;101205.28;4964718;28;99442;-92
2020/12/19 05:59:34;;;;;;;5.20;4.90;;;;;;;24.18;32.81;101199.94;5003924;22;125733;-51
2020/12/19 06:01:59;;;;;;;1.02;0.93;;;;;;;24.17;32.87;101203.53;4996368;28;96702;-52
2020/12/19 06:04:24;;;;;;;1.67;1.15;;;;;;;24.18;32.77;101202.59;4997638;28;111789;-52
2020/12/19 06:06:50;;;;;;;1.30;1.00;;;;;;;24.18;32.55;101192.81;4996507;28;127044;-51
2020/12/19 06:09:16;;;;;;;1.55;1.08;;;;;;;24.18;32.68;101191.94;4995412;28;97174;-52
2020/12/19 06:11:51;;;;;;;1.20;1.00;;;;;;;24.18;32.71;101189.28;4998017;28;97198;-52
2020/12/19 06:14:22;;;;;;;1.02;0.80;;;;;;;24.18;32.56;101186.63;4999021;28;96553;-51
2020/12/19 06:16:50;;;;;;;1.40;1.15;;;;;;;24.17;32.94;101177.75;4996841;28;98118;-51
2020/12/19 06:19:21;;;;;;;1.15;1.00;;;;;;;24.19;32.50;101185.66;4981126;28;118009;-51
2020/12/19 06:21:51;;;;;;;1.40;1.05;;;;;;;24.18;32.74;101179.47;4980178;28;97126;-52
2020/12/19 06:24:56;;;;;;;1.27;1.10;;;;;;;24.16;32.62;101177.81;5015203;28;96561;-51
2020/12/19 06:27:22;;;;;;;1.42;1.10;;;;;;;24.20;32.64;101179.44;4953526;28;97833;-51
2020/12/19 06:29:47;;;;;;;1.17;1.00;;;;;;;24.18;32.67;101186.63;4952425;28;97268;-51
2020/12/19 06:32:39;;;;;;;1.15;1.05;;;;;;;24.14;32.59;101181.41;4964156;28;112128;-51
2020/12/19 06:35:08;;;;;;;1.15;1.05;;;;;;;24.18;32.52;101186.63;4990389;28;111885;-51
2020/12/19 06:37:35;;;;;;;1.55;1.13;;;;;;;24.17;32.54;101191.09;5012916;28;97395;-52
2020/12/19 06:40:16;;;;;;;1.50;1.25;;;;;;;24.15;32.68;101190.25;5012788;28;116755;-51
2020/12/19 06:42:43;;;;;;;1.48;0.90;;;;;;;24.17;32.58;101183.09;5012089;28;97250;-51
2020/12/19 06:45:27;;;;;;;1.75;1.30;;;;;;;24.15;32.52;101190.25;5013835;28;96784;-51
2020/12/19 06:47:53;;;;;;;1.20;1.00;;;;;;;24.17;32.93;101188.41;5001706;28;97595;-51
2020/12/19 06:50:19;;;;;;;1.55;1.17;;;;;;;24.16;32.89;101188.47;4996875;28;97165;-51
2020/12/19 06:52:58;;;;;;;1.30;1.00;;;;;;;24.15;32.78;101198.25;4991074;28;96887;-51
2020/12/19 06:55:25;;;;;;;1.25;1.15;;;;;;;24.15;32.79;101184.91;5015270;28;97045;-52
2020/12/19 06:57:51;;;;;;;1.30;1.10;;;;;;;24.15;32.63;101187.59;4996799;28;97238;-52
2020/12/19 07:00:23;;;;;;;1.77;1.20;;;;;;;24.14;32.63;101183.19;4994905;28;97128;-51
2020/12/19 07:02:55;;;;;;;1.25;1.02;;;;;;;24.16;32.62;101178.69;5012604;28;97407;-52
2020/12/19 07:05:25;;;;;;;1.25;1.10;;;;;;;24.15;32.52;101176.94;4996759;28;96876;-52
2020/12/19 07:07:51;;;;;;;1.10;0.90;;;;;;;24.16;32.57;101183.16;4976493;28;99506;-51
2020/12/19 07:10:34;;;;;;;1.13;1.02;;;;;;;24.13;32.91;101181.44;5009940;28;125956;-51
2020/12/19 07:13:00;;;;;;;1.30;1.02;;;;;;;24.15;32.90;101176.94;4997777;28;96722;-51
2020/12/19 07:15:53;;;;;;;1.10;1.00;;;;;;;24.13;32.64;101171.69;4997980;28;96958;-52
2020/12/19 07:18:36;;;;;;;1.70;1.15;;;;;;;24.15;32.87;101174.25;5009415;28;127637;-51
2020/12/19 07:21:09;;;;;;;1.45;1.27;;;;;;;24.16;32.51;101183.16;5015910;28;97227;-51
2020/12/19 07:23:36;;;;;;;1.27;1.00;;;;;;;24.16;32.55;101170.69;4989516;28;96903;-51
2020/12/19 07:26:01;;;;;;;1.60;1.50;;;;;;;24.16;32.64;101181.34;5017315;28;97274;-51
2020/12/19 07:28:27;;;;;;;1.40;1.30;;;;;;;24.17;32.68;101187.53;4996779;28;109832;-52
2020/12/19 07:30:52;;;;;;;1.73;1.63;;;;;;;24.18;32.56;101191.94;5016889;28;98693;-52
2020/12/19 07:33:18;;;;;;;1.50;1.33;;;;;;;24.18;32.56;101189.28;5015850;28;112975;-52
2020/12/19 07:35:43;;;;;;;1.50;1.35;;;;;;;24.18;32.70;101198.13;4997132;28;97589;-52
2020/12/19 07:38:09;;;;;;;1.35;1.25;;;;;;;24.18;32.61;101194.63;5014731;28;98316;-51
2020/12/19 07:40:34;;;;;;;1.00;0.80;;;;;;;24.18;32.63;101184.81;4995072;28;126695;-52
2020/12/19 07:43:06;;;;;;;1.20;1.10;;;;;;;24.18;32.75;101190.13;4999172;28;96884;-52
2020/12/19 07:45:32;;;;;;;1.25;0.98;;;;;;;24.20;32.43;101192.75;4996544;28;97712;-52
2020/12/19 07:47:58;;;;;;;1.50;1.02;;;;;;;24.19;32.69;101186.56;5000273;28;98764;-52
2020/12/19 07:50:27;;;;;;;1.23;1.13;;;;;;;24.19;32.80;101181.22;5015514;28;126622;-51
2020/12/19 07:53:03;;;;;;;1.40;1.00;;;;;;;24.18;32.60;101182.16;5014149;28;107036;-51
2020/12/19 07:55:29;;;;;;;1.02;0.90;;;;;;;24.19;32.57;101189.22;4994929;28;111719;-51
2020/12/19 07:57:54;;;;;;;1.52;0.95;;;;;;;24.19;32.68;101185.66;4980375;28;97487;-51
2020/12/19 08:00:20;;;;;;;1.50;1.40;;;;;;;24.19;32.65;101180.34;5016357;28;97208;-51
2020/12/19 08:02:46;;;;;;;1.10;0.93;;;;;;;24.19;32.70;101181.22;5016844;28;96785;-51
2020/12/19 08:05:11;;;;;;;1.50;1.00;;;;;;;24.19;32.71;101183.00;5017186;28;111923;-51
2020/12/19 08:07:37;;;;;;;1.60;1.10;;;;;;;24.20;32.61;101179.44;4999150;28;104021;-51
2020/12/19 08:10:07;;;;;;;1.73;1.20;;;;;;;24.19;32.62;101188.34;5017967;28;97195;-52
2020/12/19 08:12:32;;;;;;;1.08;0.93;;;;;;;24.20;32.30;101184.75;5018211;28;96862;-52
2020/12/19 08:15:04;;;;;;;1.48;1.20;;;;;;;24.19;32.60;101185.66;5017342;28;96896;-51
2020/12/19 08:17:30;;;;;;;1.20;1.00;;;;;;;24.19;32.46;101183.91;5017339;28;97523;-52
2020/12/19 08:19:56;;;;;;;1.42;1.00;;;;;;;24.19;32.50;101183.91;4997186;28;97179;-51
2020/12/19 08:22:22;;;;;;;1.10;1.00;;;;;;;24.18;32.38;101184.81;4982204;28;97407;-51
2020/12/19 08:24:50;;;;;;;1.38;1.27;;;;;;;24.19;32.23;101180.34;4998588;28;96862;-51
2020/12/19 08:27:43;;;;;;;1.13;1.02;;;;;;;24.15;32.72;101168.94;5014177;28;114995;-51
2020/12/19 08:30:23;;;;;;;1.30;1.00;;;;;;;24.17;32.46;101171.53;4996359;28;99598;-51
2020/12/19 08:32:56;;;;;;;1.40;0.90;;;;;;;24.16;32.33;101168.03;5016533;28;96807;-51
2020/12/19 08:35:26;;;;;;;1.83;1.10;;;;;;;24.16;32.40;101167.16;5015577;28;96986;-52
2020/12/19 08:38:01;;;;;;;1.30;1.15;;;;;;;24.16;32.69;101169.81;5015700;28;97317;-52
2020/12/19 08:40:31;;;;;;;1.55;1.13;;;;;;;24.16;32.37;101167.16;4990539;28;100373;-51
2020/12/19 08:42:57;;;;;;;1.30;1.02;;;;;;;24.17;32.38;101163.53;4997331;28;97369;-51
2020/12/19 08:45:29;;;;;;;1.23;1.10;;;;;;;24.17;32.36;101167.09;4996616;28;96859;-52
2020/12/19 08:48:23;;;;;;;1.42;1.27;;;;;;;24.14;32.40;101156.56;4974197;28;98968;-51
2020/12/19 08:50:50;;;;;;;1.70;1.45;;;;;;;24.17;32.45;101166.22;5014401;28;97293;-51
2020/12/19 08:53:22;;;;;;;1.40;1.10;;;;;;;24.16;32.61;101164.50;4996802;28;96709;-51
2020/12/19 08:55:48;;;;;;;1.08;1.00;;;;;;;24.17;32.51;101166.22;5014480;28;96981;-51
2020/12/19 08:58:24;;;;;;;1.40;0.98;;;;;;;24.16;32.50;101162.69;4998331;28;98763;-51
2020/12/19 09:00:50;;;;;;;1.92;1.60;;;;;;;24.17;32.50;101177.75;4979910;28;98467;-51
2020/12/19 09:03:33;;;;;;;1.10;1.00;;;;;;;24.16;32.25;101165.34;4999539;28;96883;-51
2020/12/19 09:06:06;;;;;;;1.27;1.13;;;;;;;24.18;32.36;101168.81;5015327;28;98174;-52
2020/12/19 09:08:44;;;;;;;1.95;1.00;;;;;;;24.18;32.64;101167.97;5016935;28;97528;-52
2020/12/19 09:11:24;;;;;;;2.03;1.13;;;;;;;24.17;32.65;101172.44;4996100;28;99258;-51
2020/12/19 09:13:49;;;;;;;2.13;1.10;;;;;;;24.19;32.60;101175.91;4989545;28;97072;-52
2020/12/19 09:16:15;;;;;;;2.70;1.10;;;;;;;24.20;32.55;101182.09;5013357;28;113048;-52
2020/12/19 09:18:40;;;;;;;5.68;1.15;;;;;;;24.20;32.43;101177.63;4983299;28;119600;-51
2020/12/19 09:21:10;;;;;;;3.97;1.17;;;;;;;24.21;32.66;101186.50;4979718;28;101823;-52
2020/12/19 09:23:35;;;;;;;4.78;1.10;;;;;;;24.22;32.50;101186.41;4987071;28;96816;-52
2020/12/19 09:26:01;;;;;;;1.52;1.42;;;;;;;24.23;32.69;101192.63;4996784;28;111742;-52
2020/12/19 09:28:27;;;;;;;1.63;1.10;;;;;;;24.22;32.56;101180.22;4983763;28;97629;-52
2020/12/19 09:30:53;;;;;;;2.70;1.30;;;;;;;24.23;32.35;101181.97;4979970;28;120188;-52
2020/12/19 09:33:19;;;;;;;1.98;1.20;;;;;;;24.24;32.62;101181.03;4981842;28;97124;-52
2020/12/19 09:35:44;;;;;;;1.60;1.10;;;;;;;24.24;32.50;101186.38;5002382;28;96707;-52
2020/12/19 09:38:10;;;;;;;5.60;1.38;;;;;;;24.23;32.62;101179.31;4998696;28;97650;-52
2020/12/19 09:40:35;;;;;;;2.22;1.20;;;;;;;24.23;32.41;101187.31;4997992;28;97191;-52
2020/12/19 09:43:01;;;;;;;3.17;1.40;;;;;;;24.22;32.38;101178.41;4980662;28;96834;-52
2020/12/19 09:45:26;;;;;;;2.75;1.10;;;;;;;24.22;32.69;101170.44;5007927;28;98532;-52
2020/12/19 09:47:55;;;;;;;2.05;1.20;;;;;;;24.21;32.31;101179.38;4994838;28;97443;-52
2020/12/19 09:50:21;;;;;;;2.30;1.33;;;;;;;24.22;32.55;101177.56;5012455;28;97248;-52
2020/12/19 09:52:47;;;;;;;2.17;1.30;;;;;;;24.21;32.29;101179.38;4991056;28;96787;-52
2020/12/19 09:55:12;;;;;;;1.63;1.38;;;;;;;24.20;32.53;101182.94;4983810;28;96909;-52
2020/12/19 09:57:38;;;;;;;2.08;1.35;;;;;;;24.20;32.32;101177.63;4977248;28;126720;-52
2020/12/19 10:00:07;;;;;;;1.75;1.15;;;;;;;24.19;32.48;101181.22;4998004;28;126527;-52
2020/12/19 10:02:37;;;;;;;;;;;;;;;24.18;32.54;101178.63;5007492;28;96820;-52
2020/12/19 10:05:03;;;;;;;3.45;1.13;;;;;;;24.21;32.44;101168.72;4998901;28;96729;-52
2020/12/19 10:07:28;;;;;;;2.28;1.85;;;;;;;24.19;32.28;101173.25;4979536;28;100109;-52
2020/12/19 10:09:54;;;;;;;1.38;1.25;;;;;;;24.18;32.32;101174.16;4994975;28;126620;-60
2020/12/19 10:12:20;;;;;;;2.25;1.20;;;;;;;24.18;32.44;101163.50;5015382;28;96631;-60
2020/12/19 10:14:46;;;;;;;3.08;1.80;;;;;;;24.17;32.45;101164.44;4997353;28;97973;-59
2020/12/19 10:17:11;;;;;;;2.05;1.25;;;;;;;24.16;32.43;101170.69;5014445;28;98158;-59
2020/12/19 10:19:37;;;;;;;5.82;1.52;;;;;;;24.16;32.61;101167.16;5015331;28;97777;-59
2020/12/19 10:22:02;;;;;;;3.40;1.40;;;;;;;24.15;32.64;101152.94;4980130;28;99599;-59
2020/12/19 10:24:28;;;;;;;2.72;1.35;;;;;;;24.14;32.40;101146.75;4981881;28;96766;-60
2020/12/19 10:26:53;;;;;;;1.67;1.40;;;;;;;24.13;32.45;101137.03;4981318;28;97380;-59
2020/12/19 10:29:19;;;;;;;1.90;1.45;;;;;;;24.12;32.48;101127.28;4982104;28;97207;-60
2020/12/19 10:31:44;;;;;;;2.00;1.30;;;;;;;24.12;32.72;101137.97;4966738;28;97008;-59
2020/12/19 10:34:10;;;;;;;2.28;1.50;;;;;;;24.11;32.33;101125.53;5006478;28;97243;-59
2020/12/19 10:36:35;;;;;;;2.55;1.40;;;;;;;24.11;32.53;101122.03;4983862;28;125554;-60
2020/12/19 10:39:01;;;;;;;3.15;1.70;;;;;;;24.09;32.30;101127.41;4975244;28;125182;-60
2020/12/19 10:41:26;;;;;;;1.42;1.20;;;;;;;24.09;32.41;101123.88;4992931;28;97095;-59
2020/12/19 10:43:52;;;;;;;2.35;1.40;;;;;;;24.09;32.62;101129.22;4977989;28;110826;-59
2020/12/19 10:46:21;;;;;;;1.45;1.35;;;;;;;24.07;32.45;101123.09;4991616;28;126848;-59
2020/12/19 10:48:47;;;;;;;2.22;1.20;;;;;;;24.05;32.67;101104.50;4994227;28;97322;-59
2020/12/19 10:51:12;;;;;;;2.17;1.40;;;;;;;24.05;32.47;101103.63;4968493;28;113050;-60
2020/12/19 10:53:39;;;;;;;1.83;1.52;;;;;;;24.05;32.48;101112.47;4995907;28;97252;-59
2020/12/19 10:56:05;;;;;;;3.40;1.20;;;;;;;24.04;32.47;101092.06;4991631;28;97561;-59
2020/12/19 10:58:31;;;;;;;2.60;1.58;;;;;;;24.03;32.79;101095.69;4981316;28;126469;-60
2020/12/19 11:00:57;;;;;;;4.18;2.10;;;;;;;24.02;32.41;101093.09;4996686;28;112213;-59
2020/12/19 11:03:23;;;;;;;3.17;1.75;;;;;;;23.99;32.37;101086.06;4986476;28;96736;-61
2020/12/19 11:05:48;;;;;;;3.22;2.35;;;;;;;23.99;32.52;101082.53;4985068;28;126208;-60
2020/12/19 11:08:14;;;;;;;5.28;2.20;;;;;;;23.99;32.69;101090.53;4992986;28;126588;-60
2020/12/19 11:10:41;;;;;;;2.92;1.83;;;;;;;23.97;32.90;101074.59;4980188;28;110077;-59
2020/12/19 11:13:07;;;;;;;4.45;1.90;;;;;;;23.99;32.85;101066.56;4967455;28;102621;-60
2020/12/19 11:15:32;;;;;;;5.47;1.75;;;;;;;23.97;32.58;101074.59;4995404;28;126799;-60
2020/12/19 11:17:58;;;;;;;4.40;1.77;;;;;;;23.98;32.60;101068.34;5013901;28;113349;-59
2020/12/19 11:20:24;;;;;;;2.30;2.00;;;;;;;23.99;32.89;101071.88;4981026;28;97089;-65
2020/12/19 11:22:49;;;;;;;2.67;1.73;;;;;;;23.97;32.72;101061.28;4997402;28;96752;-65
2020/12/19 11:25:15;;;;;;;3.28;1.60;;;;;;;23.98;32.90;101067.50;4994329;28;108941;-65